Terminal Aerodrome Forecast
Issued by NWS Medford, OR

Current Version | Previous Version | Text Only | Print | Product List | Glossary On
Versions: 1 2 3 4 5 6 7 8 9 10 11 12
693
FTUS46 KMFR 032342
TAFMFR
TAF
KMFR 032342Z 0400/0424 26010KT P6SM -SHRA VCTS SCT040 BKN090CB
     FM040300 33005KT P6SM -SHRA OVC040
     FM041800 32008KT P6SM -SHRA BKN040 OVC100=

USA.gov is the U.S. government's official web portal to all federal, state and local government web resources and services.